createdAt,value
2019-04-24T00:03:13.252Z,9.60
2019-04-24T02:06:23.569Z,8.10
2019-04-24T02:09:43.286Z,8.10
2019-04-24T02:31:23.312Z,7.80
2019-04-24T02:34:40.857Z,7.90
2019-04-24T03:04:01.683Z,7.60
2019-04-24T03:13:19.141Z,7.70
2019-04-24T03:19:28.598Z,7.50
2019-04-24T03:22:04.511Z,7.40
2019-04-24T03:27:26.893Z,7.30
2019-04-24T03:30:28.399Z,7.30
2019-04-24T03:33:07.743Z,7.30
2019-04-24T03:45:27.271Z,7.40
2019-04-24T04:03:14.169Z,7.30
2019-04-24T04:05:50.639Z,7.30
2019-04-24T04:09:26.061Z,7.30
2019-04-24T04:12:01.948Z,7.20
2019-04-24T04:31:35.994Z,6.90
2019-04-24T04:36:56.280Z,6.90
2019-04-24T04:39:31.221Z,7.00
2019-04-24T04:42:31.832Z,7.00
2019-04-24T04:50:50.203Z,7.30
2019-04-24T05:01:14.068Z,7.60
2019-04-24T05:33:05.004Z,8.50
2019-04-24T05:35:23.367Z,8.70
2019-04-24T05:37:59.632Z,8.80
2019-04-24T05:40:43.955Z,8.90
2019-04-24T05:43:16.597Z,9.00
2019-04-24T05:45:54.357Z,9.10
2019-04-24T05:48:28.089Z,9.30
2019-04-24T05:51:33.447Z,9.50
2019-04-24T05:54:09.427Z,9.60
2019-04-24T05:56:57.585Z,9.80
2019-04-24T05:59:28.336Z,10.00
2019-04-24T06:02:32.041Z,10.20
2019-04-24T06:07:46.616Z,10.50
2019-04-24T06:13:08.994Z,10.90
2019-04-24T06:15:53.305Z,11.20
2019-04-24T06:18:43.761Z,11.30
2019-04-24T06:24:03.237Z,11.60
2019-04-24T06:29:19.660Z,12.00
2019-04-24T06:34:01.851Z,12.50
2019-04-24T06:37:12.818Z,12.80
2019-04-24T06:40:08.186Z,13.00
2019-04-24T06:58:11.821Z,14.80
2019-04-24T07:01:06.859Z,15.00
2019-04-24T07:06:38.707Z,15.30
2019-04-24T07:12:18.230Z,15.60
2019-04-24T07:18:02.545Z,16.00
2019-04-24T07:20:52.324Z,16.20
2019-04-24T07:42:04.744Z,17.10
2019-04-24T07:47:09.178Z,17.30
2019-04-24T07:49:39.317Z,17.40
2019-04-24T07:52:19.831Z,17.50
2019-04-24T07:54:56.630Z,17.60
2019-04-24T07:57:35.725Z,17.80
2019-04-24T08:00:27.998Z,17.90
2019-04-24T08:02:59.903Z,17.90
2019-04-24T08:05:24.664Z,18.00
2019-04-24T08:15:54.644Z,18.50
2019-04-24T08:23:42.060Z,18.60
2019-04-24T08:26:06.661Z,18.60
2019-04-24T08:28:45.706Z,18.60
2019-04-24T08:31:23.255Z,18.60
2019-04-24T08:36:17.679Z,18.70
2019-04-24T08:44:49.913Z,18.90
2019-04-24T08:49:55.600Z,19.10
2019-04-24T08:52:33.317Z,19.10
2019-04-24T08:54:53.796Z,19.10
2019-04-24T08:58:08.558Z,19.20
2019-04-24T09:00:27.207Z,19.30
2019-04-24T09:06:03.761Z,19.50
2019-04-24T09:12:08.037Z,19.60
2019-04-24T09:14:58.542Z,19.60
2019-04-24T09:17:20.761Z,19.60
2019-04-24T09:20:03.858Z,19.70
2019-04-24T09:22:36.514Z,19.80
2019-04-24T09:25:29.519Z,19.70
2019-04-24T09:28:32.648Z,19.80
2019-04-24T09:36:42.316Z,20.00
2019-04-24T09:44:05.936Z,20.40
2019-04-24T09:46:48.135Z,20.60
2019-04-24T09:49:16.632Z,20.60
2019-04-24T09:55:10.525Z,21.00
2019-04-24T09:57:47.124Z,20.90
2019-04-24T10:00:08.943Z,20.90
2019-04-24T10:02:48.495Z,21.00
2019-04-24T10:05:31.690Z,21.20
2019-04-24T10:08:03.926Z,21.40
2019-04-24T10:10:29.463Z,21.60
2019-04-24T10:13:06.158Z,21.80
2019-04-24T10:15:42.794Z,21.70
2019-04-24T10:18:08.910Z,21.90
2019-04-24T10:20:43.348Z,22.10
2019-04-24T10:26:27.652Z,22.00
2019-04-24T10:29:51.219Z,21.90
2019-04-24T10:32:44.806Z,21.90
2019-04-24T10:35:29.919Z,21.90
2019-04-24T10:43:57.414Z,22.30
2019-04-24T10:46:59.158Z,22.30
2019-04-24T10:52:03.876Z,22.80
2019-04-24T10:54:48.844Z,23.10
2019-04-24T10:57:11.141Z,23.20
2019-04-24T10:59:49.140Z,23.30
2019-04-24T11:02:37.118Z,22.90
2019-04-24T11:08:32.684Z,22.80
2019-04-24T11:11:08.601Z,22.70
2019-04-24T11:14:08.436Z,22.50
2019-04-24T11:19:36.755Z,22.60
2019-04-24T11:22:10.506Z,22.60
2019-04-24T11:38:12.675Z,23.10
2019-04-24T11:40:44.262Z,23.10
2019-04-24T11:43:15.189Z,23.20
2019-04-24T11:46:26.518Z,23.40
2019-04-24T11:49:16.194Z,23.20
2019-04-24T11:52:01.222Z,23.30
2019-04-24T11:54:03.301Z,23.50
2019-04-24T11:59:12.849Z,23.50
2019-04-24T12:02:13.335Z,23.70
2019-04-24T12:05:16.649Z,23.80
2019-04-24T12:07:51.992Z,23.80
2019-04-24T12:10:12.252Z,24.00
2019-04-24T12:13:02.812Z,24.10
2019-04-24T12:15:51.442Z,24.10
2019-04-24T12:23:55.345Z,24.50
2019-04-24T12:26:19.293Z,24.60
2019-04-24T12:28:56.810Z,24.70
2019-04-24T12:31:38.343Z,24.80
2019-04-24T12:34:02.823Z,24.90
2019-04-24T12:36:50.503Z,24.90
2019-04-24T12:39:25.625Z,25.00
2019-04-24T12:41:44.307Z,25.10
2019-04-24T12:52:19.593Z,25.40
2019-04-24T12:55:05.396Z,25.60
2019-04-24T13:01:08.036Z,26.00
2019-04-24T13:03:53.136Z,26.10
2019-04-24T13:06:01.190Z,26.00
2019-04-24T13:11:18.516Z,26.50
2019-04-24T13:14:14.952Z,26.70
2019-04-24T13:21:41.820Z,27.10
2019-04-24T13:24:33.705Z,27.30
2019-04-24T13:27:18.030Z,27.60
2019-04-24T13:30:07.843Z,27.80
2019-04-24T13:32:46.980Z,28.10
2019-04-24T13:35:13.591Z,28.30
2019-04-24T13:40:22.408Z,29.40
2019-04-24T13:42:58.554Z,30.60
2019-04-24T13:45:32.402Z,31.60
2019-04-24T13:50:40.022Z,31.50
2019-04-24T13:53:33.821Z,31.80
2019-04-24T13:58:21.849Z,31.80
2019-04-24T14:01:14.648Z,31.10
2019-04-24T14:11:32.665Z,30.40
2019-04-24T14:12:27.912Z,31.10
2019-04-24T14:13:44.417Z,29.80
2019-04-24T14:16:14.267Z,29.30
2019-04-24T14:18:45.808Z,28.60
2019-04-24T14:21:41.647Z,28.10
2019-04-24T14:26:43.896Z,27.60
2019-04-24T14:34:37.019Z,28.10
2019-04-24T14:39:34.385Z,27.30
2019-04-24T14:42:11.803Z,27.30
2019-04-24T14:47:26.635Z,28.60
2019-04-24T14:50:22.532Z,28.30
2019-04-24T14:55:21.077Z,27.10
2019-04-24T14:57:42.360Z,26.90
2019-04-24T15:00:18.460Z,26.50
2019-04-24T15:02:42.836Z,26.30
2019-04-24T15:05:26.972Z,26.10
2019-04-24T15:08:00.643Z,26.20
2019-04-24T15:10:20.816Z,27.60
2019-04-24T15:15:25.704Z,31.10
2019-04-24T15:18:19.729Z,32.60
2019-04-24T15:20:57.560Z,33.50
2019-04-24T15:23:35.104Z,33.40
2019-04-24T15:31:03.492Z,33.30
2019-04-24T15:33:48.850Z,31.90
2019-04-24T15:36:25.225Z,30.60
2019-04-24T15:39:43.050Z,29.70
2019-04-24T15:42:09.290Z,28.60
2019-04-24T15:44:41.835Z,28.20
2019-04-24T15:47:35.466Z,27.60
2019-04-24T16:04:02.118Z,26.70
2019-04-24T16:06:49.515Z,26.20
2019-04-24T16:17:05.837Z,25.50
2019-04-24T16:22:16.245Z,25.50
2019-04-24T16:24:57.649Z,25.40
2019-04-24T16:27:35.971Z,25.60
2019-04-24T16:35:08.896Z,25.80
2019-04-24T16:38:00.108Z,25.80
2019-04-24T16:46:36.956Z,25.40
2019-04-24T16:51:27.995Z,22.80
2019-04-24T16:53:39.814Z,20.80
2019-04-24T16:56:00.017Z,20.20
2019-04-24T16:58:44.504Z,19.20
2019-04-24T17:06:40.811Z,17.90
2019-04-24T17:12:19.801Z,17.30
2019-04-24T17:14:56.679Z,17.20
2019-04-24T17:17:47.761Z,16.70
2019-04-24T17:23:44.322Z,16.10
2019-04-24T17:26:14.131Z,15.70
2019-04-24T17:31:18.766Z,15.30
2019-04-24T17:36:33.327Z,14.30
2019-04-24T17:39:41.951Z,14.20
2019-04-24T17:42:31.697Z,14.20
2019-04-24T17:48:18.576Z,14.00
2019-04-24T17:51:07.590Z,13.80
2019-04-24T17:57:16.943Z,13.40
2019-04-24T18:03:11.067Z,13.50
2019-04-24T18:06:29.884Z,13.80
2019-04-24T18:09:03.176Z,13.80
2019-04-24T18:11:37.312Z,13.70
2019-04-24T18:14:09.480Z,13.30
2019-04-24T18:16:48.167Z,13.20
2019-04-24T18:19:18.549Z,13.10
2019-04-24T18:21:56.794Z,13.00
2019-04-24T18:24:49.707Z,13.10
2019-04-24T18:27:36.072Z,12.80
2019-04-24T18:30:20.377Z,12.80
2019-04-24T18:32:57.592Z,12.80
2019-04-24T18:35:52.436Z,12.50
2019-04-24T18:38:25.145Z,12.40
2019-04-24T18:40:55.262Z,12.40
2019-04-24T18:43:26.484Z,12.30
2019-04-24T18:46:19.306Z,12.30
2019-04-24T18:48:49.751Z,12.20
2019-04-24T18:51:22.452Z,12.20
2019-04-24T18:53:54.357Z,12.20
2019-04-24T18:56:25.762Z,12.10
2019-04-24T18:58:56.332Z,12.20
2019-04-24T19:01:26.840Z,12.20
2019-04-24T19:04:02.360Z,12.20
2019-04-24T19:06:41.532Z,12.20
2019-04-24T19:09:15.231Z,12.10
2019-04-24T19:11:45.752Z,12.00
2019-04-24T19:14:22.091Z,11.90
2019-04-24T19:16:54.170Z,11.90
2019-04-24T19:19:24.453Z,11.90
2019-04-24T19:21:56.415Z,11.90
2019-04-24T19:24:27.016Z,11.90
2019-04-24T19:26:58.137Z,11.90
2019-04-24T19:29:31.095Z,11.80
2019-04-24T19:32:05.335Z,11.80
2019-04-24T19:34:35.662Z,11.80
2019-04-24T19:37:06.276Z,11.70
2019-04-24T19:39:36.494Z,11.70
2019-04-24T19:42:06.699Z,11.70
2019-04-24T19:44:36.978Z,11.70
2019-04-24T19:47:08.075Z,11.70
2019-04-24T19:49:40.367Z,11.70
2019-04-24T19:52:13.928Z,11.70
2019-04-24T19:54:44.381Z,11.80
2019-04-24T19:57:21.944Z,11.80
2019-04-24T20:03:38.948Z,11.80
2019-04-24T20:06:25.936Z,11.60
2019-04-24T20:09:53.378Z,11.60
2019-04-24T20:15:52.333Z,11.10
2019-04-24T20:18:47.401Z,10.80
2019-04-24T20:25:26.071Z,10.60
2019-04-24T20:47:34.994Z,10.70
2019-04-24T20:50:27.832Z,10.60
2019-04-24T20:53:05.176Z,10.30
2019-04-24T20:55:41.587Z,10.20
2019-04-24T20:58:25.847Z,10.20
2019-04-24T21:00:57.649Z,10.20
2019-04-24T21:03:34.040Z,10.20
2019-04-24T21:06:48.112Z,10.10
2019-04-24T21:09:42.462Z,10.10
2019-04-24T21:12:23.110Z,10.10
2019-04-24T21:15:20.348Z,10.20
2019-04-24T21:18:05.649Z,10.10
2019-04-24T21:20:47.442Z,10.10
2019-04-24T21:23:25.402Z,9.90
2019-04-24T21:26:00.442Z,9.60
2019-04-24T21:28:36.661Z,9.30
2019-04-24T21:31:08.046Z,9.20
2019-04-24T21:33:39.950Z,8.80
2019-04-24T21:36:33.580Z,8.70
2019-04-24T21:39:06.161Z,8.70
2019-04-24T21:41:36.677Z,8.60
2019-04-24T21:44:09.373Z,8.60
2019-04-24T21:46:42.293Z,8.60
2019-04-24T21:49:24.274Z,8.60
2019-04-24T21:51:56.005Z,8.20
2019-04-24T21:54:46.597Z,8.00
2019-04-24T21:57:29.251Z,7.80
2019-04-24T22:00:01.543Z,7.80
2019-04-24T22:02:41.752Z,7.80
2019-04-24T22:05:22.245Z,7.90
2019-04-24T22:07:55.261Z,8.00
2019-04-24T22:10:26.476Z,8.10
2019-04-24T22:13:02.027Z,8.10
2019-04-24T22:15:35.055Z,8.20
2019-04-24T22:18:08.416Z,8.00
2019-04-24T22:20:48.281Z,7.80
2019-04-24T22:25:55.660Z,7.90
2019-04-24T22:28:26.580Z,8.00
2019-04-24T22:31:14.560Z,8.00
2019-04-24T22:34:12.109Z,7.90
2019-04-24T22:37:02.771Z,7.60
2019-04-24T22:39:58.662Z,7.40
2019-04-24T22:42:35.758Z,7.30
2019-04-24T22:45:10.839Z,7.40
2019-04-24T22:47:44.108Z,7.40
2019-04-24T22:50:15.514Z,7.50
2019-04-24T22:52:54.846Z,7.50
2019-04-24T22:55:32.740Z,7.20
2019-04-24T22:58:15.266Z,7.30
2019-04-24T23:00:49.922Z,7.30
2019-04-24T23:03:27.676Z,7.10
2019-04-24T23:05:58.881Z,6.90
2019-04-24T23:08:42.155Z,6.90
2019-04-24T23:11:26.659Z,6.90
2019-04-24T23:14:02.212Z,6.90
2019-04-24T23:16:39.173Z,7.00
2019-04-24T23:19:13.033Z,7.00
2019-04-24T23:22:02.248Z,7.10
2019-04-24T23:24:56.986Z,7.20
2019-04-24T23:27:38.551Z,7.00
2019-04-24T23:30:29.375Z,6.60
2019-04-24T23:33:12.052Z,6.60
2019-04-24T23:35:48.177Z,6.50
2019-04-24T23:38:24.427Z,6.50
2019-04-24T23:40:55.089Z,6.50
2019-04-24T23:43:28.672Z,6.50
2019-04-24T23:46:03.288Z,6.40
2019-04-24T23:48:36.923Z,6.30
2019-04-24T23:51:11.722Z,6.20
2019-04-24T23:53:51.375Z,6.30
2019-04-24T23:56:25.566Z,6.30
2019-04-24T23:58:57.284Z,6.20
